Tropical Cyclones
[Index]
Main Index Home Page Stock Weather Photos Extreme Storms Discussion Storm News and Storm Chasing Reports Tropical Cyclones / Hurricanes / Typhoons Weather Data and Links Wild Fires / Bushfires Weather Observation Techniques Weather Picture Catalogue Tornado Pictures and Reports Stock Video Footage and DVDs for sale
Season 1969-1970 Tropical Cyclone 197023 Track Map
Season 1969-1970 Summaries: [BoM-AU] [JTWC-AU] [JTWC-SIO] [JTWC-SPAC] [JTWC-SH]
<<- Previous TC | JTWC 1969-1970 Season | Next TC ->>

click for intensity scale information  Lat/long Grid: Show Hide

 Date Labels: Show Hide

Joint Typhoon Warning Centre Cyclone Data

Name: 197023
Number: 736 / 7023

12 Mar 1970 00:00 UTC to 20 Mar 1970 18:00 UTC

    date/time    lat    long     hPa   cat  kts
1970-03-12 00   10.6   154.4                  05          
1970-03-12 06   10.1   153.7                  10          
1970-03-12 12    9.5   152.8                  10          
1970-03-12 18    9.0   151.9                  10          
1970-03-13 00    8.8   150.9                  10          
1970-03-13 06    9.4   149.9                  05          
1970-03-13 12   10.2   148.9                  05          
1970-03-13 18   11.2   147.9                  15          
1970-03-14 00   12.0   146.9                  15          
1970-03-14 06   12.5   145.8                  20          
1970-03-14 12   12.7   145.0                  20          
1970-03-14 18   12.8   144.3                  20          
1970-03-15 00   13.0   143.4                  20          
1970-03-15 06   13.1   142.5                  15          
1970-03-15 12   13.4   141.6                  15          
1970-03-15 18   13.7   140.8                  15          
1970-03-16 00   13.9   139.9                  15          
1970-03-16 06   13.9   139.1                  20          
1970-03-16 12   14.0   138.2                  20          
1970-03-16 18   14.2   137.4                  15          
1970-03-17 00   14.3   136.7                  15          
1970-03-17 06   14.3   136.6                  20          
1970-03-17 12   14.5   136.3                  20          
1970-03-17 18   14.9   136.1                  20          
1970-03-18 00   15.0   135.6                  20          
1970-03-18 06   15.1   135.0                  20          
1970-03-18 12   15.3   135.2                  20          
1970-03-18 18   15.5   135.6                  15          
1970-03-19 00   15.7   136.0                  15          
1970-03-19 06   15.7   136.4                  15          
1970-03-19 12   15.6   136.7                  15          
1970-03-19 18   15.3   137.0                  15          
1970-03-20 00   15.3   137.2                  15          
1970-03-20 06   15.3   137.4                  20          
1970-03-20 12   15.3   137.6                  20          
1970-03-20 18   15.2   137.8                  15          
Winds are 1-min average.

Tropical cyclone tracks developed by Michael Bath using data from the Joint Typhoon Warning Centre Best Tracks and Google Maps.


[Australian Severe Weather index] [Copyright Notice] [Email Contacts] [Search This Site] [Privacy Policy]
Document: tropical_cyclone_197023.htm Updated: 18 September 2016